首页
METAR-TAF:

METAR-TAF

机场 :

布加勒斯特, 罗马尼亚

布加勒斯特奥托佩尼-亨利·科安德国际机场

纬度: 44-33N, 经度: 026-06E, 海拔: 95米

当前天气观测

该预报发布于44分钟前的01:00 UTC
风速6节,风向西
温度 -2°C
湿度 93%
气压 1009 hPa
能见度10公里或以上
1500米以下无云,无积雨云

METAR: LROP 190100Z 26006KT CAVOK M02/M03 Q1009 R26R/19//95 NOSIG

时间: 03:44 (01:44 UTC)

预报

该预报发布于2小时和44分钟前的23:00 UTC
预报有效从19日的 00点(UTC)到 19日的 24点(UTC)
风速6节,风向西转西南
能见度10公里或以上
1500米以下无云,无积雨云
短暂存在
从 19日的 00点(UTC)到 19日的 06点(UTC)
能見度: 3000
轻雾
成为
从 19日的 06点(UTC)到 19日的 08点(UTC)
风速16节,风向西
短暂存在
从 19日的 08点(UTC)到 19日的 15点(UTC)
风速16节,风向西,有时为26节阵风
成为
从 19日的 17点(UTC)到 19日的 19点(UTC)
风速4节,风向多变

TAF: LROP 182300Z 1900/1924 25006KT CAVOK TEMPO 1900/1906 3000 BR BECMG 1906/1908 26016KT TEMPO 1908/1915 27016G26KT BECMG 1917/1919 VRB04KT

超过4000个机场的气象观测和天气预报(METAR&TAF报告)。

可查询的气象台以黄色和红色小点在地图上表示。

将鼠标移到小点上方,可查看气象台名称。

然后点击查看天气观测和预报。

如需切换地图:点击带黑十字的绿色按钮放大地图;点击带横线的绿色按钮缩小地图;或者点击绿色箭头查看邻近地区的地图。


METAR-TAF: